Time;durP1;ratioP1;P1;durP2;ratioP2;P2;SDS_P1;SDS_P2;PMS_P1;PMS_P2;Temp;Humidity;BMP_temperature;BMP_pressure;BME280_temperature;BME280_humidity;BME280_pressure;Samples;Min_cycle;Max_cycle;Signal;HPM_P1;HPM_P2
2023/09/21 00:00:49;;;;;;;3.58;1.83;;;;;;;18.10;73.61;100392.03;2056072;28;20050;-67
2023/09/21 00:01:53;;;;;;;6.28;1.88;;;;;;;18.10;73.44;100391.25;2054725;28;20054;-67
2023/09/21 00:03:11;;;;;;;6.45;1.90;;;;;;;18.11;73.54;100396.34;2057765;28;20035;-67
2023/09/21 00:04:13;;;;;;;4.60;2.03;;;;;;;18.11;73.53;100396.34;2053489;28;20039;-67
2023/09/21 00:05:21;;;;;;;3.38;1.77;;;;;;;18.12;73.57;100391.69;2037337;28;20036;-67
2023/09/21 00:06:25;;;;;;;3.33;1.90;;;;;;;18.11;73.48;100390.09;2040550;28;21140;-67
2023/09/21 00:07:32;;;;;;;6.28;1.90;;;;;;;18.10;73.45;100386.59;2048080;28;20918;-67
2023/09/21 00:08:36;;;;;;;3.33;1.90;;;;;;;18.10;73.26;100383.88;2056289;28;20050;-67
2023/09/21 00:09:39;;;;;;;3.70;2.10;;;;;;;18.11;73.51;100380.00;2039717;29;20047;-67
2023/09/21 00:10:50;;;;;;;6.35;1.98;;;;;;;18.12;73.48;100380.81;2032421;28;20172;-67
2023/09/21 00:11:54;;;;;;;5.18;1.77;;;;;;;18.12;73.48;100380.81;2040756;28;20044;-67
2023/09/21 00:13:02;;;;;;;5.35;1.83;;;;;;;18.11;73.33;100380.00;2032940;29;20041;-67
2023/09/21 00:14:11;;;;;;;3.47;1.88;;;;;;;18.12;73.31;100381.59;2035388;28;20044;-68
2023/09/21 00:15:18;;;;;;;4.45;2.05;;;;;;;18.12;73.27;100384.31;2047768;28;20050;-67
2023/09/21 00:16:29;;;;;;;5.38;2.00;;;;;;;18.10;73.25;100386.59;2047288;28;20213;-67
2023/09/21 00:17:35;;;;;;;5.17;1.70;;;;;;;18.11;73.20;100384.66;2049483;28;20115;-67
2023/09/21 00:18:36;;;;;;;4.93;1.73;;;;;;;18.10;73.24;100389.31;2055564;28;21121;-68
2023/09/21 00:19:45;;;;;;;3.42;1.85;;;;;;;18.10;73.12;100380.38;2055408;28;20039;-67
2023/09/21 00:20:52;;;;;;;2.53;1.60;;;;;;;18.09;73.17;100382.25;2051413;28;20047;-67
2023/09/21 00:22:07;;;;;;;4.30;1.92;;;;;;;18.08;73.21;100377.97;2049232;28;20134;-67
2023/09/21 00:23:18;;;;;;;3.72;1.73;;;;;;;18.08;73.22;100383.41;2041573;28;20923;-67
2023/09/21 00:24:28;;;;;;;2.42;1.70;;;;;;;18.09;73.19;100376.81;2050070;28;20155;-67
2023/09/21 00:25:30;;;;;;;4.28;1.90;;;;;;;18.08;73.12;100375.25;2040033;28;20143;-67
2023/09/21 00:26:34;;;;;;;2.58;1.67;;;;;;;18.10;73.10;100383.88;2033276;28;21389;-67
2023/09/21 00:27:39;;;;;;;3.40;1.83;;;;;;;18.10;73.18;100374.94;2055526;28;20144;-67
2023/09/21 00:28:44;;;;;;;4.70;1.50;;;;;;;18.10;73.01;100378.44;2055577;28;21708;-67
2023/09/21 00:29:50;;;;;;;3.58;1.80;;;;;;;18.10;73.11;100378.44;2039657;28;20135;-67
2023/09/21 00:31:15;;;;;;;4.05;1.80;;;;;;;18.10;73.06;100380.38;2031587;29;20804;-66
2023/09/21 00:32:20;;;;;;;4.00;1.50;;;;;;;18.10;73.01;100374.94;2032501;28;20054;-67
2023/09/21 00:33:28;;;;;;;3.42;1.70;;;;;;;18.09;72.93;100371.38;2040706;28;20047;-67
2023/09/21 00:34:37;;;;;;;2.70;1.40;;;;;;;18.08;72.95;100363.56;2041138;28;21651;-67
2023/09/21 00:35:46;;;;;;;2.55;1.60;;;;;;;18.08;72.82;100374.44;2025472;29;20037;-67
2023/09/21 00:36:53;;;;;;;2.90;1.70;;;;;;;18.09;73.12;100370.59;2033482;28;20033;-67
2023/09/21 00:38:07;;;;;;;2.80;1.80;;;;;;;18.09;72.95;100370.59;2047918;28;20161;-67
2023/09/21 00:39:11;;;;;;;5.22;1.60;;;;;;;18.10;72.83;100369.47;2049574;28;20040;-67
2023/09/21 00:40:17;;;;;;;4.63;1.63;;;;;;;18.09;72.90;100365.94;2039778;29;20941;-67
2023/09/21 00:41:25;;;;;;;2.45;1.85;;;;;;;18.09;72.79;100371.38;2040813;28;20051;-67
2023/09/21 00:42:37;;;;;;;2.85;1.60;;;;;;;18.10;72.77;100364.84;2039901;29;20963;-67
2023/09/21 00:43:41;;;;;;;3.03;1.55;;;;;;;18.11;72.88;100369.13;2034266;28;20827;-67
2023/09/21 00:44:46;;;;;;;4.03;1.83;;;;;;;18.12;72.81;100365.28;2047959;28;20085;-66
2023/09/21 00:45:53;;;;;;;7.15;1.60;;;;;;;18.11;72.76;100363.69;2047348;28;20961;-67
2023/09/21 00:47:04;;;;;;;3.20;1.70;;;;;;;18.11;72.74;100363.69;2050188;28;20061;-67
2023/09/21 00:48:17;;;;;;;3.85;1.88;;;;;;;18.11;72.67;100360.97;2041019;29;20036;-67
2023/09/21 00:49:28;;;;;;;2.58;1.70;;;;;;;18.12;72.72;100365.28;2045917;28;20838;-67
2023/09/21 00:50:44;;;;;;;4.75;1.85;;;;;;;18.13;72.60;100364.16;2040451;28;20036;-67
2023/09/21 00:51:49;;;;;;;3.10;1.63;;;;;;;18.13;72.66;100366.88;2043068;28;20036;-67
2023/09/21 00:52:57;;;;;;;4.72;1.70;;;;;;;18.14;72.39;100363.03;2034747;28;20036;-67
2023/09/21 00:54:07;;;;;;;4.00;1.90;;;;;;;18.13;72.47;100358.72;2041843;28;20036;-67
2023/09/21 00:55:38;;;;;;;4.38;1.70;;;;;;;18.12;72.59;100370.72;2049854;28;20060;-67
2023/09/21 00:56:56;;;;;;;2.65;1.65;;;;;;;18.12;72.33;100354.38;2053994;28;20263;-64
2023/09/21 00:58:02;;;;;;;3.65;1.92;;;;;;;18.12;72.45;100378.09;2042557;28;20040;-66
2023/09/21 00:59:09;;;;;;;4.85;1.75;;;;;;;18.10;72.46;100367.56;2034347;28;20048;-67
2023/09/21 01:00:18;;;;;;;2.50;1.60;;;;;;;18.11;72.45;100363.69;2043763;28;20046;-67
2023/09/21 01:01:28;;;;;;;5.05;1.70;;;;;;;18.11;72.26;100371.84;2041503;28;21045;-67
2023/09/21 01:02:33;;;;;;;3.42;1.58;;;;;;;18.11;72.38;100362.91;2044119;28;20048;-67
2023/09/21 01:03:39;;;;;;;2.88;1.40;;;;;;;18.09;72.53;100357.78;2064597;28;20034;-67
2023/09/21 01:04:45;;;;;;;4.90;1.52;;;;;;;18.11;72.50;100363.69;2048548;28;20040;-66
2023/09/21 01:05:50;;;;;;;5.07;1.80;;;;;;;18.10;72.32;100364.84;2032497;29;20032;-66
2023/09/21 01:06:54;;;;;;;2.95;1.60;;;;;;;18.11;72.34;100362.91;2041142;28;20046;-67
2023/09/21 01:08:04;;;;;;;4.03;1.73;;;;;;;18.09;72.17;100357.78;2041554;28;20048;-67
2023/09/21 01:09:17;;;;;;;4.13;2.10;;;;;;;18.08;72.26;100348.03;2049354;28;20052;-67
2023/09/21 01:10:24;;;;;;;6.00;1.70;;;;;;;18.11;72.38;100347.38;2048942;28;20048;-67
2023/09/21 01:11:26;;;;;;;4.07;1.77;;;;;;;18.12;72.22;100348.16;2049563;28;20182;-67
2023/09/21 01:12:34;;;;;;;3.88;1.83;;;;;;;18.11;72.17;100350.09;2040992;29;20036;-67
2023/09/21 01:13:39;;;;;;;3.67;1.60;;;;;;;18.12;72.11;100345.44;2042873;28;20032;-66
2023/09/21 01:14:43;;;;;;;5.70;1.50;;;;;;;18.12;72.06;100354.38;2056337;28;20154;-67
2023/09/21 01:16:07;;;;;;;5.03;1.65;;;;;;;18.13;71.96;100347.84;2048944;28;21560;-66
2023/09/21 01:17:14;;;;;;;5.40;1.80;;;;;;;18.15;71.86;100342.03;2044311;28;20130;-66
2023/09/21 01:18:19;;;;;;;2.55;1.63;;;;;;;18.15;71.88;100342.03;2050016;28;20242;-66
2023/09/21 01:19:23;;;;;;;3.33;1.65;;;;;;;18.14;71.91;100352.16;2057534;28;20040;-66
2023/09/21 01:20:33;;;;;;;2.40;1.60;;;;;;;18.11;71.94;100341.94;2049181;28;20035;-66
2023/09/21 01:21:43;;;;;;;5.10;1.83;;;;;;;18.14;71.83;100346.69;2041467;28;20036;-66
2023/09/21 01:23:15;;;;;;;2.20;1.58;;;;;;;18.12;71.76;100348.94;2051396;28;20191;-66
2023/09/21 01:24:22;;;;;;;3.88;1.90;;;;;;;18.13;71.85;100347.84;2049998;28;20193;-66
2023/09/21 01:25:26;;;;;;;3.33;1.73;;;;;;;18.14;71.81;100346.69;2043090;28;20040;-66
2023/09/21 01:26:38;;;;;;;4.97;1.60;;;;;;;18.12;71.73;100343.50;2057553;28;20051;-66
2023/09/21 01:27:40;;;;;;;;;;;;;;;18.12;71.76;100348.94;2040905;29;20031;-66
2023/09/21 01:28:47;;;;;;;3.20;1.75;;;;;;;18.12;71.73;100343.50;2034963;28;19915;-66
2023/09/21 01:29:50;;;;;;;4.50;1.90;;;;;;;18.12;72.12;100343.50;2057019;28;20043;-66
2023/09/21 01:30:58;;;;;;;11.00;1.90;;;;;;;18.11;71.72;100341.94;2049823;28;20046;-66
2023/09/21 01:31:59;;;;;;;3.75;1.80;;;;;;;18.13;71.76;100336.16;2043087;28;20048;-67
2023/09/21 01:33:11;;;;;;;2.20;1.48;;;;;;;18.13;71.67;100344.31;2042215;28;20039;-67
2023/09/21 01:34:13;;;;;;;4.28;1.65;;;;;;;18.12;71.65;100342.72;2036823;28;20891;-66
2023/09/21 01:35:19;;;;;;;2.88;1.90;;;;;;;18.12;71.57;100340.00;2041531;28;20091;-67
2023/09/21 01:36:24;;;;;;;3.55;1.88;;;;;;;18.12;71.56;100337.28;2048677;28;20170;-67
2023/09/21 01:37:29;;;;;;;2.97;1.67;;;;;;;18.12;71.57;100340.78;2042522;28;20051;-67
2023/09/21 01:38:31;;;;;;;6.38;1.90;;;;;;;18.12;71.58;100343.50;2043752;28;20170;-67
2023/09/21 01:39:35;;;;;;;2.45;1.60;;;;;;;18.13;71.50;100338.88;2042352;28;21060;-67
2023/09/21 01:40:52;;;;;;;5.32;2.00;;;;;;;18.12;71.27;100338.06;2044450;28;20088;-66
2023/09/21 01:41:58;;;;;;;4.70;1.73;;;;;;;18.12;71.49;100346.22;2052293;28;20056;-66
2023/09/21 01:43:04;;;;;;;3.25;1.70;;;;;;;18.11;71.43;100341.13;2042091;28;20044;-66
2023/09/21 01:44:07;;;;;;;5.07;2.05;;;;;;;18.11;71.52;100336.47;2059405;28;20849;-66
2023/09/21 01:45:13;;;;;;;4.03;2.10;;;;;;;18.11;71.57;100339.22;2065764;28;20035;-66
2023/09/21 01:46:22;;;;;;;4.65;1.73;;;;;;;18.11;71.29;100341.94;2047784;28;20039;-66
2023/09/21 01:47:27;;;;;;;4.32;1.70;;;;;;;18.10;71.57;100334.91;2049835;28;20114;-66
2023/09/21 01:48:32;;;;;;;11.75;2.30;;;;;;;18.09;71.46;100336.00;2034763;29;21055;-67
2023/09/21 01:49:37;;;;;;;4.50;1.58;;;;;;;18.09;71.55;100333.28;2044507;28;21090;-66
2023/09/21 01:50:48;;;;;;;2.40;1.70;;;;;;;18.08;71.53;100331.72;2057606;28;20035;-67
2023/09/21 01:51:56;;;;;;;5.88;2.08;;;;;;;18.06;71.45;100333.97;2050313;28;20031;-67
2023/09/21 01:52:57;;;;;;;3.85;1.77;;;;;;;18.08;71.54;100337.16;2059134;28;20058;-67
2023/09/21 01:53:59;;;;;;;3.28;1.80;;;;;;;18.08;71.56;100337.16;2057774;28;20039;-67
2023/09/21 01:55:10;;;;;;;8.27;2.10;;;;;;;18.07;71.56;100332.84;2034061;29;21000;-67
2023/09/21 01:56:28;;;;;;;3.95;1.70;;;;;;;18.07;71.49;100330.13;2039599;28;20914;-67
2023/09/21 01:57:43;;;;;;;6.22;2.45;;;;;;;18.06;71.50;100334.78;2034006;29;20040;-67
2023/09/21 01:58:49;;;;;;;3.22;1.88;;;;;;;18.08;71.25;100337.16;2047205;28;20040;-67
2023/09/21 01:59:53;;;;;;;4.80;1.80;;;;;;;18.07;71.53;100338.28;2057183;28;20040;-67
2023/09/21 02:00:57;;;;;;;4.03;1.90;;;;;;;18.06;71.40;100329.34;2042475;28;20036;-68
2023/09/21 02:02:01;;;;;;;5.07;1.90;;;;;;;18.06;71.31;100333.97;2042712;28;20140;-67
2023/09/21 02:03:06;;;;;;;3.10;1.92;;;;;;;18.05;71.42;100332.38;2041933;28;20195;-67
2023/09/21 02:04:11;;;;;;;3.17;1.60;;;;;;;18.06;71.47;100323.06;2050704;28;20052;-67
2023/09/21 02:05:22;;;;;;;3.90;1.60;;;;;;;18.06;71.43;100325.78;2057695;28;20045;-68
2023/09/21 02:06:26;;;;;;;4.03;1.85;;;;;;;18.06;71.30;100323.06;2048685;28;20080;-68
2023/09/21 02:07:51;;;;;;;3.83;1.70;;;;;;;18.04;71.41;100320.72;2034455;28;20040;-68
2023/09/21 02:08:57;;;;;;;4.85;1.92;;;;;;;18.07;71.21;100324.69;2038615;28;20850;-67
2023/09/21 02:10:17;;;;;;;4.72;1.80;;;;;;;18.06;71.23;100320.34;2034811;29;20164;-67
2023/09/21 02:11:20;;;;;;;5.72;1.75;;;;;;;18.04;70.85;100330.78;2039069;28;20262;-67
2023/09/21 02:12:23;;;;;;;7.30;1.90;;;;;;;18.02;70.94;100319.44;2049619;28;21064;-67
2023/09/21 02:13:30;;;;;;;5.97;2.10;;;;;;;18.03;70.92;100312.88;2057770;28;20065;-67
2023/09/21 02:14:34;;;;;;;6.45;1.98;;;;;;;18.03;71.10;100318.31;2057571;28;20090;-67
2023/09/21 02:15:47;;;;;;;4.97;1.80;;;;;;;18.03;70.91;100315.59;2049743;28;20997;-67
2023/09/21 02:16:59;;;;;;;5.63;1.90;;;;;;;18.02;70.99;100316.72;2051694;28;20091;-66
2023/09/21 02:18:02;;;;;;;3.05;1.90;;;;;;;18.02;70.99;100316.72;2040129;28;21001;-67
2023/09/21 02:19:10;;;;;;;3.38;1.65;;;;;;;18.02;71.11;100311.28;2051044;28;20047;-66
2023/09/21 02:20:20;;;;;;;4.35;2.10;;;;;;;18.04;70.87;100319.91;2056510;28;20058;-66
2023/09/21 02:21:22;;;;;;;3.70;1.90;;;;;;;18.03;70.97;100312.88;2049961;28;20036;-67
2023/09/21 02:22:26;;;;;;;4.65;2.10;;;;;;;18.04;70.82;100319.91;2049403;28;20051;-67
2023/09/21 02:23:30;;;;;;;4.60;1.70;;;;;;;18.03;70.84;100313.69;2047787;28;20174;-67
2023/09/21 02:24:35;;;;;;;3.30;1.92;;;;;;;18.03;70.90;100318.31;2056998;28;20047;-67
2023/09/21 02:25:44;;;;;;;2.58;1.80;;;;;;;18.03;70.72;100321.03;2058608;28;20031;-67
2023/09/21 02:26:48;;;;;;;3.47;1.80;;;;;;;18.02;70.75;100319.44;2063659;28;20051;-67
2023/09/21 02:27:56;;;;;;;3.30;1.67;;;;;;;18.01;70.61;100321.38;2040842;29;20963;-67
2023/09/21 02:29:06;;;;;;;7.30;1.95;;;;;;;18.00;70.47;100319.78;2037015;28;20112;-68
2023/09/21 02:30:17;;;;;;;2.92;1.65;;;;;;;18.01;70.43;100317.88;2056784;28;20118;-67
2023/09/21 02:31:21;;;;;;;5.20;1.80;;;;;;;18.00;70.43;100305.38;2042913;28;20128;-67
2023/09/21 02:32:27;;;;;;;2.95;1.67;;;;;;;17.99;70.47;100311.94;2042498;28;20162;-67
2023/09/21 02:33:33;;;;;;;7.22;1.63;;;;;;;18.00;70.37;100316.25;2042394;28;20926;-67
2023/09/21 02:34:40;;;;;;;5.03;1.65;;;;;;;17.99;70.45;100309.22;2051121;28;20067;-67
2023/09/21 02:35:49;;;;;;;2.45;1.60;;;;;;;17.99;70.39;100317.38;2057749;28;20038;-67
2023/09/21 02:36:55;;;;;;;;;;;;;;;17.98;70.28;100316.59;2049778;28;20048;-67
2023/09/21 02:38:08;;;;;;;3.78;1.98;;;;;;;17.97;70.22;100303.31;2041825;29;19946;-67
2023/09/21 02:39:14;;;;;;;4.55;1.60;;;;;;;17.96;70.18;100299.81;2036770;28;20124;-67
2023/09/21 02:40:23;;;;;;;3.47;1.60;;;;;;;17.96;70.17;100301.75;2049180;28;21113;-67
2023/09/21 02:41:26;;;;;;;6.88;1.70;;;;;;;17.96;69.94;100299.00;2042785;28;20099;-66
2023/09/21 02:42:30;;;;;;;2.85;1.60;;;;;;;17.95;70.01;100300.16;2049784;28;20898;-67
2023/09/21 02:43:35;;;;;;;3.47;1.80;;;;;;;17.96;70.02;100290.84;2049524;28;20921;-67
2023/09/21 02:44:37;;;;;;;4.22;1.77;;;;;;;17.95;69.98;100289.28;2034188;29;20036;-67
2023/09/21 02:45:40;;;;;;;3.30;1.65;;;;;;;17.96;69.68;100304.47;2042634;28;20036;-67
2023/09/21 02:46:45;;;;;;;3.40;1.88;;;;;;;17.95;70.19;100298.22;2057480;28;20087;-67
2023/09/21 02:47:51;;;;;;;4.65;1.60;;;;;;;17.94;69.93;100298.56;2049601;28;21036;-67
2023/09/21 02:48:55;;;;;;;5.45;2.10;;;;;;;17.95;69.95;100303.66;2042540;28;20051;-67
2023/09/21 02:49:57;;;;;;;3.90;1.83;;;;;;;17.95;69.94;100300.16;2041763;29;20039;-68
2023/09/21 02:51:06;;;;;;;3.00;1.90;;;;;;;17.93;69.88;100302.41;2034694;28;20085;-67
2023/09/21 02:52:13;;;;;;;4.72;1.88;;;;;;;17.93;69.94;100296.97;2045603;28;21111;-68
2023/09/21 02:53:17;;;;;;;3.95;1.58;;;;;;;17.92;70.00;100296.16;2052484;28;20058;-67
2023/09/21 02:54:23;;;;;;;4.45;1.70;;;;;;;17.93;70.01;100295.03;2049282;28;21094;-67
2023/09/21 02:55:33;;;;;;;3.95;1.60;;;;;;;17.92;70.11;100296.16;2052164;28;20122;-67
2023/09/21 02:56:38;;;;;;;5.10;1.73;;;;;;;17.94;69.99;100293.13;2065680;28;20035;-67
2023/09/21 02:57:40;;;;;;;2.53;1.83;;;;;;;17.94;69.91;100301.28;2064829;28;20226;-67
2023/09/21 02:58:43;;;;;;;3.42;1.67;;;;;;;17.94;70.00;100309.44;2040982;29;20048;-67
2023/09/21 02:59:45;;;;;;;3.92;1.90;;;;;;;17.94;69.92;100306.72;2042083;28;20854;-67
2023/09/21 03:00:50;;;;;;;4.97;1.85;;;;;;;17.93;69.98;100308.63;2057116;28;20929;-67
2023/09/21 03:01:54;;;;;;;3.65;1.67;;;;;;;17.91;70.09;100302.75;2049727;28;20050;-67
2023/09/21 03:03:00;;;;;;;4.40;1.90;;;;;;;17.92;70.08;100304.34;2041559;29;20822;-67
2023/09/21 03:04:06;;;;;;;3.92;1.80;;;;;;;17.91;70.23;100300.03;2042310;28;20044;-67
2023/09/21 03:05:13;;;;;;;4.25;1.77;;;;;;;17.93;70.19;100307.84;2057532;28;20098;-68
2023/09/21 03:06:42;;;;;;;10.70;2.20;;;;;;;17.91;70.14;100305.47;2049476;28;20857;-67
2023/09/21 03:07:55;;;;;;;3.03;2.00;;;;;;;17.91;70.17;100302.75;2044686;28;21044;-67
2023/09/21 03:08:57;;;;;;;5.18;1.65;;;;;;;17.90;70.32;100309.31;2042564;28;20039;-67
2023/09/21 03:10:05;;;;;;;4.97;1.80;;;;;;;17.90;70.33;100303.06;2049319;28;20181;-67
2023/09/21 03:11:13;;;;;;;6.10;2.10;;;;;;;17.88;70.54;100303.41;2049429;28;20930;-67
2023/09/21 03:12:20;;;;;;;4.55;2.00;;;;;;;17.87;70.58;100301.00;2043347;28;20055;-67
2023/09/21 03:13:26;;;;;;;6.75;1.85;;;;;;;17.87;70.63;100298.28;2050950;28;20036;-67
2023/09/21 03:14:28;;;;;;;3.70;1.80;;;;;;;17.86;70.66;100302.16;2041083;28;20043;-67
2023/09/21 03:15:32;;;;;;;6.72;2.28;;;;;;;17.81;70.81;100306.69;2033813;28;20040;-67
2023/09/21 03:16:39;;;;;;;7.85;1.90;;;;;;;17.81;70.92;100300.41;2046791;28;20058;-67
2023/09/21 03:17:47;;;;;;;6.90;2.20;;;;;;;17.78;71.08;100307.34;2041631;28;20179;-67
2023/09/21 03:18:53;;;;;;;7.20;2.35;;;;;;;17.75;71.09;100310.69;2035325;28;20246;-67
2023/09/21 03:19:59;;;;;;;4.55;1.90;;;;;;;17.72;71.26;100307.84;2041882;28;20044;-67
2023/09/21 03:21:15;;;;;;;6.40;2.50;;;;;;;17.70;71.33;100315.53;2042422;28;20032;-67
2023/09/21 03:22:19;;;;;;;7.40;2.28;;;;;;;17.67;71.42;100314.28;2050490;28;20074;-67
2023/09/21 03:23:22;;;;;;;4.55;1.88;;;;;;;17.65;71.59;100311.06;2060767;28;20136;-67
2023/09/21 03:24:26;;;;;;;12.65;2.45;;;;;;;17.65;71.51;100313.00;2056670;28;20150;-67
2023/09/21 03:25:32;;;;;;;6.30;2.05;;;;;;;17.64;71.54;100309.50;2049996;28;20153;-67
2023/09/21 03:26:40;;;;;;;5.50;2.10;;;;;;;17.63;71.75;100310.63;2057597;28;20035;-66
2023/09/21 03:27:49;;;;;;;6.50;2.08;;;;;;;17.61;71.90;100310.16;2049059;28;20028;-67
2023/09/21 03:28:52;;;;;;;4.80;2.15;;;;;;;17.57;72.04;100306.53;2042343;28;20163;-67
2023/09/21 03:29:55;;;;;;;3.13;2.00;;;;;;;17.56;72.03;100305.72;2041518;28;20047;-67
2023/09/21 03:30:57;;;;;;;7.88;2.22;;;;;;;17.55;72.05;100297.88;2041404;29;20036;-67
2023/09/21 03:32:03;;;;;;;4.78;2.10;;;;;;;17.55;71.87;100297.88;2034887;28;20093;-66
2023/09/21 03:33:08;;;;;;;4.00;2.10;;;;;;;17.55;72.06;100303.31;2048977;28;20043;-67
2023/09/21 03:34:10;;;;;;;4.43;1.85;;;;;;;17.55;72.02;100309.56;2049953;28;21083;-67
2023/09/21 03:35:31;;;;;;;6.35;2.13;;;;;;;17.53;71.87;100294.72;2049986;28;20047;-67
2023/09/21 03:36:38;;;;;;;5.32;2.00;;;;;;;17.53;71.96;100300.16;2051510;28;20131;-67
2023/09/21 03:37:50;;;;;;;3.13;1.98;;;;;;;17.52;71.85;100295.84;2040873;28;20055;-67
2023/09/21 03:38:56;;;;;;;9.40;2.00;;;;;;;17.51;71.75;100299.69;2051802;28;20043;-67
2023/09/21 03:39:59;;;;;;;6.32;2.55;;;;;;;17.51;71.77;100302.41;2048288;28;20055;-67
2023/09/21 03:41:04;;;;;;;3.50;1.50;;;;;;;17.50;71.87;100295.38;2048072;28;20052;-67
2023/09/21 03:42:06;;;;;;;4.38;2.00;;;;;;;17.49;72.13;100294.56;2045238;28;21078;-67
2023/09/21 03:43:14;;;;;;;4.60;1.95;;;;;;;17.48;72.00;100287.56;2050129;28;20162;-67
2023/09/21 03:44:17;;;;;;;7.90;2.33;;;;;;;17.48;71.89;100286.75;2056195;28;20043;-67
2023/09/21 03:45:25;;;;;;;6.93;2.05;;;;;;;17.46;71.88;100286.28;2049463;28;20089;-66
2023/09/21 03:46:33;;;;;;;6.38;2.03;;;;;;;17.44;71.87;100291.28;2058465;28;20058;-67
2023/09/21 03:47:44;;;;;;;3.08;1.88;;;;;;;17.43;71.95;100285.03;2040706;29;20179;-67
2023/09/21 03:48:47;;;;;;;3.65;2.03;;;;;;;17.43;71.86;100289.66;2042816;28;20182;-67
2023/09/21 03:50:00;;;;;;;4.15;1.80;;;;;;;17.42;71.88;100278.00;2041195;28;20038;-67
2023/09/21 03:51:06;;;;;;;5.05;2.00;;;;;;;17.41;71.84;100286.50;2035496;28;20953;-66
2023/09/21 03:52:09;;;;;;;3.25;1.73;;;;;;;17.42;71.95;100290.81;2048168;28;21102;-67
2023/09/21 03:53:13;;;;;;;6.35;2.25;;;;;;;17.40;71.68;100287.59;2048649;28;21386;-67
2023/09/21 03:54:17;;;;;;;6.22;2.15;;;;;;;17.40;71.84;100287.59;2042221;28;20202;-67
2023/09/21 03:55:24;;;;;;;5.93;2.17;;;;;;;17.38;71.81;100288.75;2041311;28;20040;-67
2023/09/21 03:56:36;;;;;;;5.72;2.13;;;;;;;17.38;71.77;100288.75;2044291;28;20189;-67
2023/09/21 03:57:38;;;;;;;7.40;2.30;;;;;;;17.37;71.76;100286.38;2050301;28;20935;-67
2023/09/21 03:58:40;;;;;;;4.65;2.47;;;;;;;17.35;71.55;100286.69;2033146;29;20183;-67
2023/09/21 03:59:43;;;;;;;4.88;1.88;;;;;;;17.35;71.53;100288.59;2041689;28;21283;-67
2023/09/21 04:00:48;;;;;;;3.72;2.30;;;;;;;17.35;71.53;100286.69;2048888;28;20027;-67
2023/09/21 04:01:53;;;;;;;5.70;2.35;;;;;;;17.34;71.85;100290.53;2026745;29;20049;-67
2023/09/21 04:02:59;;;;;;;3.22;1.90;;;;;;;17.35;71.67;100285.91;2026206;29;20124;-67
2023/09/21 04:04:13;;;;;;;6.47;3.13;;;;;;;17.34;71.69;100287.03;2039664;28;20906;-67
2023/09/21 04:05:20;;;;;;;5.18;2.10;;;;;;;17.32;71.75;100289.28;2057558;28;20046;-67
2023/09/21 04:06:25;;;;;;;4.43;2.20;;;;;;;17.31;71.87;100288.47;2049126;28;20118;-68
2023/09/21 04:07:30;;;;;;;4.93;2.10;;;;;;;17.31;71.65;100285.75;2048755;28;20222;-67
2023/09/21 04:08:34;;;;;;;5.65;2.22;;;;;;;17.31;71.50;100279.53;2049227;28;20036;-68
2023/09/21 04:09:39;;;;;;;3.10;2.10;;;;;;;17.29;71.58;100279.84;2041583;28;20877;-66
2023/09/21 04:10:43;;;;;;;5.22;2.25;;;;;;;17.29;71.70;100279.06;2057954;28;20109;-66
2023/09/21 04:11:45;;;;;;;3.35;1.77;;;;;;;17.27;71.77;100271.22;2047922;28;20138;-66
2023/09/21 04:12:57;;;;;;;;;;;;;;;17.27;71.58;100279.38;2043509;28;20145;-66
2023/09/21 04:14:07;;;;;;;5.10;2.55;;;;;;;17.28;71.77;100274.75;2041544;28;20006;-65
2023/09/21 04:15:11;;;;;;;3.70;2.20;;;;;;;17.25;71.72;100272.69;2043314;28;20167;-66
2023/09/21 04:16:13;;;;;;;7.03;2.05;;;;;;;17.28;71.54;100272.84;2041937;28;20976;-66
2023/09/21 04:17:15;;;;;;;6.03;2.05;;;;;;;17.28;71.85;100275.56;2040707;28;20048;-66
2023/09/21 04:18:19;;;;;;;11.38;2.85;;;;;;;17.29;71.76;100276.34;2033434;28;20787;-66
2023/09/21 04:19:20;;;;;;;3.92;2.03;;;;;;;17.28;71.71;100274.75;2033412;28;20047;-65
2023/09/21 04:20:34;;;;;;;7.97;3.08;;;;;;;17.27;71.69;100270.44;2033606;29;20047;-65
2023/09/21 04:21:41;;;;;;;3.20;2.30;;;;;;;17.27;71.63;100276.66;2045400;28;20044;-66
2023/09/21 04:22:43;;;;;;;5.10;2.20;;;;;;;17.27;71.73;100271.22;2060400;28;20078;-66
2023/09/21 04:23:46;;;;;;;5.78;2.47;;;;;;;17.28;71.75;100270.13;2049913;28;20130;-66
2023/09/21 04:24:50;;;;;;;5.53;2.00;;;;;;;17.28;71.66;100261.19;2043172;28;20032;-66
2023/09/21 04:25:52;;;;;;;5.97;2.13;;;;;;;17.29;71.74;100277.13;2050835;28;20040;-66
2023/09/21 04:26:58;;;;;;;6.00;2.30;;;;;;;17.29;71.78;100268.19;2058554;28;20077;-67
2023/09/21 04:28:00;;;;;;;4.10;2.10;;;;;;;17.29;71.82;100271.69;2065944;28;20077;-67
2023/09/21 04:29:08;;;;;;;3.78;2.28;;;;;;;17.28;71.70;100269.31;2042619;28;20043;-70
2023/09/21 04:30:15;;;;;;;6.82;2.20;;;;;;;17.27;71.62;100268.50;2029004;28;20784;-66
2023/09/21 04:31:18;;;;;;;7.95;2.28;;;;;;;17.25;71.92;100262.63;2034897;28;20108;-66
2023/09/21 04:32:20;;;;;;;4.28;2.45;;;;;;;17.24;71.76;100266.44;2041947;28;20043;-66
2023/09/21 04:33:24;;;;;;;7.57;2.28;;;;;;;17.23;71.93;100270.31;2050018;28;20047;-66
2023/09/21 04:34:27;;;;;;;15.63;2.72;;;;;;;17.23;71.82;100267.59;2058699;28;20035;-66
2023/09/21 04:35:34;;;;;;;4.70;2.30;;;;;;;17.21;71.94;100267.09;2058504;28;20880;-66
2023/09/21 04:36:38;;;;;;;6.10;2.13;;;;;;;17.20;71.96;100270.97;2043385;28;20043;-66
2023/09/21 04:37:42;;;;;;;7.68;2.53;;;;;;;17.19;71.98;100268.59;2033664;29;20184;-65
2023/09/21 04:38:50;;;;;;;5.15;2.33;;;;;;;17.17;72.18;100266.19;2036158;28;20081;-67
2023/09/21 04:39:56;;;;;;;7.38;2.22;;;;;;;17.17;72.11;100271.63;2050664;28;20040;-65
2023/09/21 04:40:58;;;;;;;3.08;2.20;;;;;;;17.16;72.25;100272.75;2042131;29;20048;-66
2023/09/21 04:42:04;;;;;;;3.75;2.30;;;;;;;17.15;72.36;100271.16;2043184;28;20051;-66
2023/09/21 04:43:09;;;;;;;5.28;2.30;;;;;;;17.15;72.57;100271.16;2049713;28;20130;-66
2023/09/21 04:44:11;;;;;;;4.20;2.22;;;;;;;17.12;72.46;100274.53;2042438;28;20040;-66
2023/09/21 04:45:16;;;;;;;7.63;2.40;;;;;;;17.08;72.85;100277.09;2050426;28;20921;-66
2023/09/21 04:46:22;;;;;;;5.13;2.75;;;;;;;17.07;72.86;100277.44;2050562;28;20879;-66
2023/09/21 04:47:28;;;;;;;4.35;2.40;;;;;;;17.06;72.93;100275.84;2051282;28;20838;-66
2023/09/21 04:48:30;;;;;;;7.05;2.40;;;;;;;17.02;73.55;100274.91;2058257;28;20031;-66
2023/09/21 04:49:37;;;;;;;6.22;2.25;;;;;;;16.99;73.29;100270.13;2050061;28;20306;-66
2023/09/21 04:50:45;;;;;;;4.25;2.50;;;;;;;16.97;73.58;100273.19;2044005;28;20148;-66
2023/09/21 04:51:48;;;;;;;8.85;3.30;;;;;;;16.97;73.89;100273.19;2050311;28;20157;-65
2023/09/21 04:52:56;;;;;;;8.43;2.40;;;;;;;16.95;73.90;100272.72;2033139;28;20041;-67
2023/09/21 04:54:08;;;;;;;8.27;2.92;;;;;;;16.92;74.27;100270.66;2036340;28;20100;-66
2023/09/21 04:55:16;;;;;;;5.53;3.05;;;;;;;16.88;74.38;100267.78;2053243;28;20042;-68
2023/09/21 04:56:19;;;;;;;7.10;2.90;;;;;;;16.87;74.76;100262.72;2054783;28;20031;-66
2023/09/21 04:57:22;;;;;;;7.90;3.78;;;;;;;16.86;75.04;100266.53;2050031;28;20142;-67
2023/09/21 04:58:26;;;;;;;10.85;3.17;;;;;;;16.86;74.81;100261.88;2041328;29;20944;-66
2023/09/21 04:59:29;;;;;;;8.30;3.55;;;;;;;16.85;75.13;100265.72;2041944;28;20036;-66
2023/09/21 05:00:33;;;;;;;7.68;3.40;;;;;;;16.84;75.28;100275.00;2057906;28;20035;-66
2023/09/21 05:01:35;;;;;;;8.43;3.40;;;;;;;16.83;75.57;100262.53;2048517;28;20133;-66
2023/09/21 05:02:36;;;;;;;6.72;3.17;;;;;;;16.84;75.49;100266.06;2039899;28;20075;-66
2023/09/21 05:03:40;;;;;;;8.00;3.35;;;;;;;16.83;75.88;100262.53;2040487;28;20048;-66
2023/09/21 05:04:42;;;;;;;5.97;3.03;;;;;;;16.82;75.93;100269.09;2049897;28;20032;-66
2023/09/21 05:05:47;;;;;;;9.82;3.63;;;;;;;16.85;76.03;100271.16;2032586;28;20036;-65
2023/09/21 05:06:52;;;;;;;12.18;3.60;;;;;;;16.85;76.22;100262.22;2039714;28;20036;-66
2023/09/21 05:08:03;;;;;;;7.97;4.05;;;;;;;16.88;76.47;100269.72;2063520;28;20037;-66
2023/09/21 05:09:09;;;;;;;10.85;3.70;;;;;;;16.90;76.41;100262.06;2056468;28;20042;-66
2023/09/21 05:10:18;;;;;;;7.30;3.78;;;;;;;16.91;76.48;100264.44;2047901;28;20035;-66
2023/09/21 05:11:20;;;;;;;8.93;3.50;;;;;;;16.94;76.49;100260.25;2040872;28;20115;-66